createdAt,value
2023-08-15T00:00:36.746Z,3.07
2023-08-15T00:04:49.720Z,3.60
2023-08-15T00:08:59.160Z,3.23
2023-08-15T00:13:04.458Z,4.13
2023-08-15T00:17:09.521Z,4.13
2023-08-15T00:21:16.390Z,4.23
2023-08-15T00:25:26.475Z,4.07
2023-08-15T00:29:30.162Z,3.77
2023-08-15T00:33:37.357Z,3.73
2023-08-15T00:37:41.154Z,4.17
2023-08-15T00:41:53.157Z,3.73
2023-08-15T00:45:57.407Z,3.30
2023-08-15T00:50:04.057Z,3.00
2023-08-15T00:54:08.566Z,2.97
2023-08-15T00:58:13.319Z,3.70
2023-08-15T01:02:18.020Z,3.43
2023-08-15T01:06:23.056Z,3.30
2023-08-15T01:10:26.860Z,3.70
2023-08-15T01:14:42.926Z,3.70
2023-08-15T01:18:49.378Z,3.37
2023-08-15T01:22:56.040Z,3.97
2023-08-15T01:27:01.387Z,3.07
2023-08-15T01:31:56.831Z,4.30
2023-08-15T01:40:25.961Z,4.17
2023-08-15T01:44:31.856Z,4.10
2023-08-15T01:48:42.678Z,4.07
2023-08-15T01:52:47.212Z,3.20
2023-08-15T01:56:50.899Z,2.97
2023-08-15T02:01:00.948Z,4.30
2023-08-15T02:05:04.946Z,3.87
2023-08-15T02:09:10.497Z,3.80
2023-08-15T02:13:31.839Z,4.17
2023-08-15T02:17:37.208Z,4.00
2023-08-15T02:21:43.485Z,3.80
2023-08-15T02:25:47.195Z,3.83
2023-08-15T02:29:52.387Z,3.90
2023-08-15T02:33:58.564Z,3.73
2023-08-15T02:38:02.563Z,4.27
2023-08-15T02:42:06.458Z,4.03
2023-08-15T02:46:36.882Z,4.03
2023-08-15T02:50:42.220Z,3.33
2023-08-15T02:54:50.375Z,3.07
2023-08-15T02:58:55.561Z,3.60
2023-08-15T03:03:04.502Z,4.10
2023-08-15T03:07:11.255Z,4.27
2023-08-15T03:11:15.111Z,4.03
2023-08-15T03:16:33.883Z,4.13
2023-08-15T03:20:37.667Z,3.40
2023-08-15T03:25:11.611Z,4.80
2023-08-15T03:29:27.547Z,4.43
2023-08-15T03:33:31.244Z,4.43
2023-08-15T03:37:55.219Z,4.70
2023-08-15T03:42:00.343Z,3.90
2023-08-15T03:46:07.439Z,5.17
2023-08-15T03:50:11.937Z,5.17
2023-08-15T03:54:17.185Z,4.80
2023-08-15T03:58:24.421Z,4.93
2023-08-15T04:02:28.594Z,3.93
2023-08-15T04:06:33.324Z,4.37
2023-08-15T04:10:40.948Z,4.40
2023-08-15T04:14:49.714Z,4.40
2023-08-15T04:18:54.514Z,4.10
2023-08-15T04:22:59.656Z,3.33
2023-08-15T04:27:04.310Z,3.00
2023-08-15T04:31:10.041Z,4.05
2023-08-15T04:35:14.427Z,3.35
2023-08-15T04:39:20.463Z,3.13
2023-08-15T04:43:24.709Z,3.60
2023-08-15T04:47:59.956Z,3.75
2023-08-15T04:52:04.060Z,3.13
2023-08-15T04:56:07.934Z,3.60
2023-08-15T05:00:16.748Z,2.75
2023-08-15T05:04:22.216Z,3.50
2023-08-15T05:08:28.236Z,2.92
2023-08-15T05:12:37.311Z,3.10
2023-08-15T05:16:41.201Z,3.05
2023-08-15T05:20:50.550Z,3.10
2023-08-15T05:24:54.831Z,3.20
2023-08-15T05:29:28.901Z,2.80
2023-08-15T05:33:32.667Z,2.78
2023-08-15T05:37:38.107Z,2.95
2023-08-15T05:41:41.816Z,3.67
2023-08-15T05:45:47.022Z,3.55
2023-08-15T05:49:51.430Z,3.20
2023-08-15T05:53:58.147Z,3.22
2023-08-15T05:58:01.927Z,2.85
2023-08-15T06:02:06.117Z,3.25
2023-08-15T06:07:14.089Z,3.33
2023-08-15T06:11:19.275Z,4.35
2023-08-15T06:15:23.475Z,3.95
2023-08-15T06:19:27.237Z,3.67
2023-08-15T06:23:31.060Z,3.97
2023-08-15T06:27:37.346Z,4.80
2023-08-15T06:31:41.196Z,4.77
2023-08-15T06:35:47.816Z,4.23
2023-08-15T06:39:51.525Z,5.20
2023-08-15T06:43:56.888Z,5.60
2023-08-15T06:48:03.182Z,5.37
2023-08-15T06:52:08.488Z,5.20
2023-08-15T06:56:14.100Z,4.57
2023-08-15T07:00:21.133Z,5.73
2023-08-15T07:04:24.994Z,6.10
2023-08-15T07:08:28.749Z,4.93
2023-08-15T07:12:33.888Z,5.63
2023-08-15T07:16:39.320Z,5.57
2023-08-15T07:20:46.364Z,5.23
2023-08-15T07:24:50.237Z,5.30
2023-08-15T07:28:55.524Z,5.67
2023-08-15T07:33:01.035Z,5.43
2023-08-15T07:37:09.785Z,5.67
2023-08-15T07:41:16.357Z,5.73
2023-08-15T07:45:47.278Z,5.50
2023-08-15T07:49:52.485Z,5.77
2023-08-15T07:54:00.788Z,5.73
2023-08-15T07:58:04.704Z,5.90
2023-08-15T08:02:08.820Z,5.43
2023-08-15T08:10:28.293Z,5.37
2023-08-15T08:14:32.686Z,5.67
2023-08-15T08:18:38.554Z,6.13
2023-08-15T08:22:47.898Z,5.63
2023-08-15T08:26:51.665Z,5.73
2023-08-15T08:30:59.214Z,5.50
2023-08-15T08:35:02.911Z,5.97
2023-08-15T08:39:29.751Z,5.50
2023-08-15T08:43:36.195Z,5.77
2023-08-15T08:47:40.777Z,5.97
2023-08-15T08:52:15.194Z,5.87
2023-08-15T08:56:21.166Z,5.50
2023-08-15T09:00:30.158Z,5.03
2023-08-15T09:04:34.157Z,5.73
2023-08-15T09:08:38.029Z,4.93
2023-08-15T09:12:43.664Z,4.67
2023-08-15T09:16:52.296Z,5.47
2023-08-15T09:20:56.950Z,4.83
2023-08-15T09:25:06.727Z,4.60
2023-08-15T09:29:14.829Z,5.00
2023-08-15T09:33:18.495Z,5.13
2023-08-15T09:37:28.896Z,5.57
2023-08-15T09:41:32.840Z,4.00
2023-08-15T09:45:39.635Z,5.97
2023-08-15T09:49:44.915Z,4.93
2023-08-15T09:53:49.735Z,5.10
2023-08-15T09:57:57.666Z,4.83
2023-08-15T10:02:04.047Z,5.00
2023-08-15T10:07:07.876Z,5.10
2023-08-15T10:11:11.990Z,4.30
2023-08-15T10:15:16.655Z,4.83
2023-08-15T10:19:22.325Z,4.53
2023-08-15T10:23:55.026Z,4.17
2023-08-15T10:27:59.030Z,3.93
2023-08-15T10:32:06.560Z,4.15
2023-08-15T10:36:12.175Z,4.50
2023-08-15T10:40:24.306Z,4.13
2023-08-15T10:44:29.315Z,4.13
2023-08-15T10:53:01.118Z,4.10
2023-08-15T10:57:05.427Z,4.03
2023-08-15T11:01:35.278Z,4.20
2023-08-15T11:05:39.164Z,4.18
2023-08-15T11:09:45.404Z,3.85
2023-08-15T11:13:51.321Z,3.47
2023-08-15T11:17:56.818Z,3.70
2023-08-15T11:22:00.960Z,3.50
2023-08-15T11:26:08.819Z,3.67
2023-08-15T11:30:29.925Z,3.60
2023-08-15T11:34:33.746Z,3.60
2023-08-15T11:38:38.604Z,3.15
2023-08-15T11:42:43.956Z,3.45
2023-08-15T11:46:54.759Z,3.42
2023-08-15T11:50:59.740Z,3.45
2023-08-15T11:55:07.998Z,3.05
2023-08-15T11:59:30.768Z,3.65
2023-08-15T12:03:35.434Z,3.60
2023-08-15T12:07:40.147Z,3.22
2023-08-15T12:11:44.347Z,3.65
2023-08-15T12:15:49.795Z,3.55
2023-08-15T12:19:53.798Z,3.75
2023-08-15T12:23:58.389Z,3.90
2023-08-15T12:28:03.437Z,3.55
2023-08-15T12:32:38.737Z,2.70
2023-08-15T12:36:42.927Z,3.70
2023-08-15T12:40:47.288Z,3.63
2023-08-15T12:44:51.565Z,3.45
2023-08-15T12:49:00.335Z,3.40
2023-08-15T12:53:05.752Z,3.45
2023-08-15T12:57:09.650Z,3.63
2023-08-15T13:01:14.779Z,3.33
2023-08-15T13:05:20.630Z,3.45
2023-08-15T13:09:24.601Z,3.38
2023-08-15T13:13:28.665Z,3.40
2023-08-15T13:17:38.411Z,3.47
2023-08-15T13:21:43.732Z,4.32
2023-08-15T13:25:48.316Z,3.42
2023-08-15T13:29:52.127Z,3.72
2023-08-15T13:33:56.225Z,3.92
2023-08-15T13:38:06.935Z,3.78
2023-08-15T13:42:16.982Z,3.72
2023-08-15T13:46:36.276Z,3.80
2023-08-15T13:50:40.555Z,3.90
2023-08-15T13:54:49.946Z,4.25
2023-08-15T13:58:53.727Z,4.07
2023-08-15T14:02:58.669Z,3.97
2023-08-15T14:07:02.603Z,4.13
2023-08-15T14:11:08.078Z,3.97
2023-08-15T14:15:38.068Z,3.55
2023-08-15T14:19:41.979Z,3.95
2023-08-15T14:23:48.096Z,3.83
2023-08-15T14:27:54.249Z,4.38
2023-08-15T14:31:59.583Z,4.75
2023-08-15T14:36:03.348Z,4.78
2023-08-15T14:40:33.637Z,5.03
2023-08-15T14:44:39.069Z,3.90
2023-08-15T14:48:49.850Z,4.90
2023-08-15T14:52:53.534Z,4.85
2023-08-15T14:57:12.577Z,5.50
2023-08-15T15:01:17.953Z,4.20
2023-08-15T15:05:31.892Z,4.97
2023-08-15T15:09:35.931Z,5.47
2023-08-15T15:13:39.734Z,5.00
2023-08-15T15:17:45.122Z,6.20
2023-08-15T15:21:51.180Z,5.25
2023-08-15T15:25:55.040Z,6.13
2023-08-15T15:29:59.580Z,5.43
2023-08-15T15:34:08.110Z,5.78
2023-08-15T15:38:12.104Z,5.43
2023-08-15T15:42:16.877Z,5.20
2023-08-15T15:46:21.103Z,6.15
2023-08-15T15:50:26.684Z,5.60
2023-08-15T15:54:30.365Z,5.65
2023-08-15T15:58:34.046Z,5.82
2023-08-15T16:02:55.240Z,5.78
2023-08-15T16:07:02.722Z,5.57
2023-08-15T16:11:07.010Z,5.80
2023-08-15T16:15:13.140Z,5.40
2023-08-15T16:19:19.242Z,5.40
2023-08-15T16:23:24.723Z,5.20
2023-08-15T16:27:33.849Z,5.75
2023-08-15T16:31:37.561Z,5.80
2023-08-15T16:35:45.443Z,4.82
2023-08-15T16:39:50.770Z,5.43
2023-08-15T16:43:59.404Z,5.53
2023-08-15T16:48:05.689Z,5.75
2023-08-15T16:52:12.474Z,5.00
2023-08-15T16:56:20.402Z,5.00
2023-08-15T17:00:54.314Z,5.90
2023-08-15T17:04:58.296Z,4.97
2023-08-15T17:09:02.203Z,5.60
2023-08-15T17:13:12.229Z,6.00
2023-08-15T17:17:16.156Z,5.10
2023-08-15T17:21:19.971Z,5.60
2023-08-15T17:25:24.931Z,5.77
2023-08-15T17:29:30.341Z,5.50
2023-08-15T17:33:37.647Z,5.57
2023-08-15T17:37:42.730Z,5.73
2023-08-15T17:41:47.487Z,5.77
2023-08-15T17:45:52.685Z,5.60
2023-08-15T17:49:57.825Z,5.60
2023-08-15T17:54:02.006Z,5.10
2023-08-15T17:58:06.107Z,5.73
2023-08-15T18:02:33.212Z,5.77
2023-08-15T18:06:37.667Z,5.53
2023-08-15T18:10:41.684Z,5.10
2023-08-15T18:14:45.422Z,6.13
2023-08-15T18:18:51.719Z,6.07
2023-08-15T18:22:55.525Z,5.70
2023-08-15T18:27:03.424Z,5.67
2023-08-15T18:32:16.099Z,5.93
2023-08-15T18:36:21.328Z,5.00
2023-08-15T18:40:27.332Z,6.13
2023-08-15T18:44:31.733Z,5.70
2023-08-15T18:48:35.812Z,6.17
2023-08-15T18:52:43.273Z,6.07
2023-08-15T18:56:47.903Z,6.00
2023-08-15T19:00:51.955Z,5.57
2023-08-15T19:04:59.415Z,5.50
2023-08-15T19:09:04.819Z,5.63
2023-08-15T19:13:10.000Z,5.20
2023-08-15T19:17:13.797Z,5.53
2023-08-15T19:21:44.232Z,6.00
2023-08-15T19:25:49.666Z,5.73
2023-08-15T19:29:55.819Z,5.77
2023-08-15T19:33:59.810Z,6.17
2023-08-15T19:38:03.817Z,5.87
2023-08-15T19:42:16.320Z,4.80
2023-08-15T19:46:20.106Z,5.53
2023-08-15T19:50:23.933Z,5.90
2023-08-15T19:54:33.665Z,5.37
2023-08-15T19:58:38.915Z,6.37
2023-08-15T20:02:42.609Z,5.37
2023-08-15T20:06:47.633Z,5.27
2023-08-15T20:10:52.677Z,5.90
2023-08-15T20:14:57.838Z,4.80
2023-08-15T20:19:04.112Z,5.47
2023-08-15T20:23:07.943Z,5.67
2023-08-15T20:27:15.957Z,5.30
2023-08-15T20:32:13.940Z,4.97
2023-08-15T20:36:19.307Z,5.57
2023-08-15T20:40:23.331Z,6.70
2023-08-15T20:44:30.597Z,6.40
2023-08-15T20:48:34.531Z,7.07
2023-08-15T20:53:06.649Z,6.97
2023-08-15T20:57:10.401Z,6.17
2023-08-15T21:01:14.240Z,6.37
2023-08-15T21:05:20.238Z,6.20
2023-08-15T21:09:31.973Z,6.70
2023-08-15T21:13:35.714Z,6.30
2023-08-15T21:17:40.918Z,5.97
2023-08-15T21:21:44.983Z,5.13
2023-08-15T21:25:52.468Z,4.57
2023-08-15T21:29:56.136Z,4.37
2023-08-15T21:34:51.668Z,4.77
2023-08-15T21:38:55.384Z,3.90
2023-08-15T21:43:06.347Z,4.33
2023-08-15T21:47:10.092Z,4.10
2023-08-15T21:51:38.970Z,4.13
2023-08-15T21:55:42.858Z,4.27
2023-08-15T21:59:49.275Z,4.40
2023-08-15T22:03:52.990Z,4.23
2023-08-15T22:08:01.501Z,3.97
2023-08-15T22:12:06.038Z,4.93
2023-08-15T22:16:17.016Z,4.03
2023-08-15T22:20:20.940Z,4.47
2023-08-15T22:24:25.998Z,3.83
2023-08-15T22:28:29.863Z,3.87
2023-08-15T22:32:35.473Z,4.30
2023-08-15T22:36:39.326Z,4.13
2023-08-15T22:40:44.221Z,4.13
2023-08-15T22:44:48.363Z,4.20
2023-08-15T22:48:53.709Z,4.43
2023-08-15T22:52:58.898Z,4.43
2023-08-15T22:57:02.850Z,4.77
2023-08-15T23:01:07.497Z,4.50
2023-08-15T23:05:12.782Z,4.17
2023-08-15T23:09:44.264Z,4.43
2023-08-15T23:13:48.258Z,4.37
2023-08-15T23:17:57.310Z,3.90
2023-08-15T23:22:02.712Z,3.97
2023-08-15T23:26:06.654Z,4.27
2023-08-15T23:30:10.894Z,4.70
2023-08-15T23:34:14.693Z,4.27
2023-08-15T23:38:19.720Z,4.70
2023-08-15T23:42:52.141Z,4.70
2023-08-15T23:46:55.995Z,4.00
2023-08-15T23:51:00.650Z,4.50
2023-08-15T23:55:06.435Z,4.77
2023-08-15T23:59:11.007Z,3.90
